Time;durP1;ratioP1;P1;durP2;ratioP2;P2;SDS_P1;SDS_P2;PMS_P1;PMS_P2;Temp;Humidity;BMP_temperature;BMP_pressure;BME280_temperature;BME280_humidity;BME280_pressure;Samples;Min_cycle;Max_cycle;Signal;HPM_P1;HPM_P2
2021/09/20 00:02:16;;;;;;;5.45;3.53;;;;;;;19.65;40.53;101312.44;5048983;28;20055;-75
2021/09/20 00:04:43;;;;;;;5.00;3.60;;;;;;;19.63;40.47;101320.00;5047497;28;20041;-74
2021/09/20 00:07:09;;;;;;;5.28;4.28;;;;;;;19.61;40.43;101316.50;5030426;28;20084;-74
2021/09/20 00:09:36;;;;;;;5.15;3.63;;;;;;;19.59;39.79;101324.06;5030062;28;20467;-74
2021/09/20 00:12:03;;;;;;;5.28;3.70;;;;;;;19.58;40.57;101325.09;5066048;28;20051;-76
2021/09/20 00:14:30;;;;;;;5.72;3.85;;;;;;;19.55;40.45;101323.50;5067968;28;20526;-74
2021/09/20 00:16:56;;;;;;;5.35;3.83;;;;;;;19.53;40.21;101320.00;5052547;28;20045;-76
2021/09/20 00:19:23;;;;;;;5.72;3.40;;;;;;;19.52;40.52;101322.94;5029685;28;20495;-75
2021/09/20 00:21:49;;;;;;;5.53;3.72;;;;;;;19.51;40.31;101332.22;5062423;28;20079;-76
2021/09/20 00:24:16;;;;;;;4.65;3.33;;;;;;;19.48;40.30;101333.38;5067471;28;20128;-75
2021/09/20 00:26:42;;;;;;;6.90;4.07;;;;;;;19.47;40.31;101337.13;5055317;28;20124;-75
2021/09/20 00:29:09;;;;;;;4.72;3.35;;;;;;;19.46;40.61;101329.00;5029167;28;20468;-74
2021/09/20 00:31:35;;;;;;;6.28;3.83;;;;;;;19.45;40.25;101324.50;5059041;28;20052;-75
2021/09/20 00:34:03;;;;;;;5.32;3.65;;;;;;;19.43;40.59;101326.56;5049383;28;20049;-74
2021/09/20 00:36:29;;;;;;;5.72;3.90;;;;;;;19.42;40.27;101322.06;5040372;28;20049;-74
2021/09/20 00:38:56;;;;;;;5.30;3.78;;;;;;;19.40;40.29;101330.47;5021071;28;20053;-76
2021/09/20 00:41:22;;;;;;;5.35;3.92;;;;;;;19.38;40.63;101321.47;5055494;28;20626;-74
2021/09/20 00:43:49;;;;;;;4.75;3.55;;;;;;;19.38;40.17;101326.97;5049527;28;20058;-74
2021/09/20 00:46:16;;;;;;;5.93;3.70;;;;;;;19.36;40.37;101332.63;5061773;28;20084;-75
2021/09/20 00:48:43;;;;;;;5.70;3.95;;;;;;;19.35;40.56;101330.03;5029461;28;20037;-76
2021/09/20 00:51:09;;;;;;;5.53;3.85;;;;;;;19.32;40.44;101322.94;5034657;28;20139;-76
2021/09/20 00:53:36;;;;;;;5.45;3.85;;;;;;;19.31;40.48;101329.47;5051023;28;20084;-76
2021/09/20 00:56:02;;;;;;;5.75;4.25;;;;;;;19.30;40.07;101329.59;5050004;28;20300;-76
2021/09/20 00:58:29;;;;;;;5.07;3.80;;;;;;;19.27;40.00;101325.25;5046163;28;20471;-76
2021/09/20 01:00:56;;;;;;;5.47;4.18;;;;;;;19.25;40.30;101326.44;5060469;28;20054;-76
2021/09/20 01:03:23;;;;;;;4.90;3.75;;;;;;;19.21;40.06;101327.72;5066700;28;20109;-76
2021/09/20 01:05:50;;;;;;;5.72;4.07;;;;;;;19.17;40.37;101329.06;5067464;28;20049;-76
2021/09/20 01:08:16;;;;;;;5.28;3.85;;;;;;;19.13;40.46;101331.22;5048848;28;20063;-76
2021/09/20 01:10:43;;;;;;;5.55;3.80;;;;;;;19.10;40.30;101336.16;5068010;28;20475;-76
2021/09/20 01:13:10;;;;;;;5.30;3.92;;;;;;;19.08;40.29;101343.69;5048223;28;20083;-76
2021/09/20 01:15:37;;;;;;;5.05;3.75;;;;;;;19.05;40.34;101333.81;5029674;28;20477;-76
2021/09/20 01:18:04;;;;;;;6.03;4.15;;;;;;;19.04;40.39;101339.47;5063019;28;20498;-76
2021/09/20 01:20:30;;;;;;;5.90;4.13;;;;;;;19.02;40.48;101341.53;5067276;28;20051;-76
2021/09/20 01:22:59;;;;;;;5.28;3.83;;;;;;;19.02;40.44;101347.03;5066356;28;20132;-76
2021/09/20 01:25:25;;;;;;;5.07;3.63;;;;;;;18.99;40.65;101345.41;5049461;28;20135;-76
2021/09/20 01:27:52;;;;;;;5.85;4.20;;;;;;;18.98;40.72;101347.31;5065471;22;20119;-73
2021/09/20 01:30:19;;;;;;;5.47;4.00;;;;;;;18.97;40.51;101352.94;5069277;28;20588;-73
2021/09/20 01:32:46;;;;;;;5.90;4.07;;;;;;;18.95;40.63;101339.31;5067967;28;20044;-74
2021/09/20 01:35:16;;;;;;;6.25;4.10;;;;;;;18.96;40.61;101342.94;5069701;28;20051;-73
2021/09/20 01:37:42;;;;;;;5.10;3.78;;;;;;;18.94;40.75;101345.00;5057086;28;20049;-74
2021/09/20 01:40:09;;;;;;;5.38;3.80;;;;;;;18.93;40.30;101340.50;5048836;28;20143;-73
2021/09/20 01:42:36;;;;;;;6.30;4.30;;;;;;;18.92;40.57;101344.28;5046881;28;20391;-75
2021/09/20 01:45:03;;;;;;;5.60;4.10;;;;;;;18.90;40.76;101344.41;5029282;28;20057;-75
2021/09/20 01:47:30;;;;;;;6.32;4.60;;;;;;;18.87;40.21;101341.06;5045327;28;20347;-75
2021/09/20 01:49:57;;;;;;;5.63;4.53;;;;;;;18.84;40.59;101342.25;5046825;28;20049;-75
2021/09/20 01:52:24;;;;;;;6.65;4.05;;;;;;;18.81;40.39;101337.00;5022145;28;20049;-75
2021/09/20 01:54:50;;;;;;;5.93;3.85;;;;;;;18.77;40.22;101341.09;5026735;28;20049;-75
2021/09/20 01:57:17;;;;;;;5.70;4.10;;;;;;;18.73;40.88;101339.63;5030859;28;20045;-75
2021/09/20 01:59:44;;;;;;;5.65;4.28;;;;;;;18.70;40.59;101342.63;5045560;28;20037;-75
2021/09/20 02:02:10;;;;;;;5.53;4.43;;;;;;;18.65;40.39;101338.59;5046647;28;20132;-75
2021/09/20 02:04:37;;;;;;;5.55;4.25;;;;;;;18.59;40.49;101335.41;5027789;28;20049;-75
2021/09/20 02:07:03;;;;;;;6.82;4.07;;;;;;;18.55;40.42;101336.66;5046132;28;20139;-75
2021/09/20 02:09:30;;;;;;;5.75;3.97;;;;;;;18.51;41.03;101335.22;5045189;28;20132;-76
2021/09/20 02:11:56;;;;;;;5.30;3.70;;;;;;;18.47;41.14;101332.88;5028483;28;20053;-75
2021/09/20 02:14:23;;;;;;;5.30;3.88;;;;;;;18.46;41.07;101342.13;5045281;28;20048;-75
2021/09/20 02:16:49;;;;;;;5.88;3.95;;;;;;;18.44;41.06;101345.06;5046000;28;20132;-75
2021/09/20 02:19:16;;;;;;;7.30;4.10;;;;;;;18.42;41.14;101346.19;5027106;28;20415;-75
2021/09/20 02:21:42;;;;;;;7.00;4.20;;;;;;;18.42;40.52;101343.44;5045760;28;20056;-75
2021/09/20 02:24:09;;;;;;;5.82;4.00;;;;;;;18.40;40.79;101345.44;5045219;28;20055;-75
2021/09/20 02:26:36;;;;;;;9.15;4.53;;;;;;;18.38;41.05;101345.59;5045552;28;20541;-75
2021/09/20 02:29:03;;;;;;;6.57;3.83;;;;;;;18.39;40.83;101349.22;5044352;28;20049;-75
2021/09/20 02:31:30;;;;;;;5.80;4.35;;;;;;;18.37;40.93;101351.22;5063599;28;20044;-75
2021/09/20 02:33:57;;;;;;;4.85;3.65;;;;;;;18.34;40.84;101346.03;5051252;28;20049;-75
2021/09/20 02:36:24;;;;;;;5.50;3.88;;;;;;;18.32;41.32;101348.03;5045542;28;20136;-75
2021/09/20 02:38:51;;;;;;;5.10;3.58;;;;;;;18.31;40.95;101349.03;5044751;28;20417;-75
2021/09/20 02:41:18;;;;;;;5.40;3.80;;;;;;;18.31;41.12;101357.28;5045980;28;20586;-75
2021/09/20 02:43:45;;;;;;;6.32;4.15;;;;;;;18.29;41.19;101342.81;5044518;28;20045;-75
2021/09/20 02:46:11;;;;;;;5.03;4.00;;;;;;;18.28;41.17;101344.72;5045539;28;20049;-75
2021/09/20 02:48:38;;;;;;;5.60;3.75;;;;;;;18.27;41.24;101351.22;5026916;28;20115;-75
2021/09/20 02:51:04;;;;;;;5.68;4.05;;;;;;;18.26;40.86;101349.47;5046188;28;20135;-75
2021/09/20 02:53:31;;;;;;;5.32;3.90;;;;;;;18.25;41.12;101353.22;5019002;28;20487;-75
2021/09/20 02:55:58;;;;;;;6.10;4.00;;;;;;;18.24;40.83;101355.09;5045756;28;20135;-75
2021/09/20 02:58:24;;;;;;;6.38;4.00;;;;;;;18.24;41.18;101359.75;5044633;28;20044;-75
2021/09/20 03:00:51;;;;;;;5.40;3.95;;;;;;;18.22;41.18;101348.88;5035452;28;20055;-75
2021/09/20 03:03:18;;;;;;;6.20;4.68;;;;;;;18.20;41.00;101345.38;5026905;28;20533;-75
2021/09/20 03:05:44;;;;;;;5.82;3.92;;;;;;;18.19;41.25;101342.81;5045548;28;20154;-75
2021/09/20 03:08:11;;;;;;;5.80;4.32;;;;;;;18.18;40.95;101343.81;5026859;28;20048;-75
2021/09/20 03:10:38;;;;;;;6.03;4.38;;;;;;;18.14;40.99;101345.09;5045824;28;20052;-75
2021/09/20 03:13:04;;;;;;;5.35;3.90;;;;;;;18.12;40.87;101338.84;5044454;28;20076;-75
2021/09/20 03:15:31;;;;;;;5.25;3.90;;;;;;;18.11;41.32;101345.38;5027913;28;20128;-75
2021/09/20 03:17:58;;;;;;;5.80;4.10;;;;;;;18.08;41.18;101345.66;5044093;28;20053;-75
2021/09/20 03:20:24;;;;;;;5.55;4.03;;;;;;;18.06;41.37;101347.66;5028060;28;20049;-76
2021/09/20 03:22:51;;;;;;;5.75;4.28;;;;;;;18.03;41.36;101348.81;5026683;28;20080;-75
2021/09/20 03:25:19;;;;;;;5.88;4.15;;;;;;;18.02;41.49;101351.72;5027578;28;20465;-75
2021/09/20 03:27:45;;;;;;;5.90;4.13;;;;;;;17.98;42.26;101348.34;5044174;28;20488;-75
2021/09/20 03:30:14;;;;;;;7.43;4.15;;;;;;;17.98;41.44;101350.22;5027728;28;20055;-75
2021/09/20 03:32:42;;;;;;;5.88;4.03;;;;;;;17.94;41.11;101357.91;5028929;28;20540;-76
2021/09/20 03:35:12;;;;;;;5.35;3.92;;;;;;;17.91;41.13;101349.91;5049108;28;20045;-75
2021/09/20 03:37:38;;;;;;;5.53;3.88;;;;;;;17.87;41.38;101352.06;5030169;28;20352;-75
2021/09/20 03:40:06;;;;;;;5.47;3.53;;;;;;;17.86;41.41;101353.09;5031559;28;20048;-75
2021/09/20 03:42:32;;;;;;;5.95;4.10;;;;;;;17.84;41.71;101357.84;5048408;28;20053;-75
2021/09/20 03:44:59;;;;;;;6.50;4.10;;;;;;;17.82;41.67;101356.22;5049002;28;20128;-75
2021/09/20 03:47:25;;;;;;;5.50;3.95;;;;;;;17.79;41.79;101362.84;5030177;28;20472;-74
2021/09/20 03:49:52;;;;;;;7.05;4.60;;;;;;;17.77;41.48;101370.38;5031222;28;20051;-76
2021/09/20 03:52:18;;;;;;;5.60;4.10;;;;;;;17.76;41.38;101373.25;5047854;28;20051;-76
2021/09/20 03:54:45;;;;;;;5.68;4.30;;;;;;;17.74;41.59;101369.78;5049221;28;20041;-76
2021/09/20 03:57:11;;;;;;;5.93;4.10;;;;;;;17.72;41.57;101371.78;5048523;28;20135;-75
2021/09/20 03:59:38;;;;;;;5.57;3.95;;;;;;;17.72;41.65;101378.16;5050012;28;20134;-76
2021/09/20 04:02:04;;;;;;;5.20;3.97;;;;;;;17.71;41.84;101376.41;5069202;28;20453;-76
2021/09/20 04:04:31;;;;;;;5.03;3.63;;;;;;;17.71;41.77;101372.78;5061641;28;20083;-75
2021/09/20 04:07:01;;;;;;;5.97;3.85;;;;;;;17.71;41.42;101381.91;5048765;28;20481;-76
2021/09/20 04:09:27;;;;;;;6.00;4.32;;;;;;;17.69;41.51;101383.94;5047757;28;20049;-76
2021/09/20 04:11:54;;;;;;;5.60;3.83;;;;;;;17.69;41.93;101378.44;5031181;28;20049;-76
2021/09/20 04:14:20;;;;;;;5.80;3.78;;;;;;;17.69;41.61;101383.06;5029846;28;20049;-76
2021/09/20 04:16:47;;;;;;;6.07;3.88;;;;;;;17.69;41.48;101380.31;5048662;28;20041;-75
2021/09/20 04:19:14;;;;;;;6.18;4.28;;;;;;;17.68;41.84;101389.56;5029303;28;20072;-76
2021/09/20 04:21:40;;;;;;;5.85;3.97;;;;;;;17.68;41.90;101384.06;5030605;28;20545;-76
2021/09/20 04:24:07;;;;;;;5.78;3.88;;;;;;;17.67;41.29;101385.06;5047608;28;20560;-76
2021/09/20 04:26:33;;;;;;;4.97;3.53;;;;;;;17.66;41.39;101389.69;5027215;28;20089;-76
2021/09/20 04:29:00;;;;;;;5.47;3.72;;;;;;;17.66;41.56;101394.31;5028439;28;20164;-75
2021/09/20 04:31:26;;;;;;;5.47;4.43;;;;;;;17.65;41.93;101387.94;5030400;28;20456;-76
2021/09/20 04:33:53;;;;;;;5.93;3.80;;;;;;;17.64;41.90;101393.56;5046898;28;20049;-75
2021/09/20 04:36:19;;;;;;;6.15;4.18;;;;;;;17.63;41.90;101392.69;5030203;28;20135;-75
2021/09/20 04:38:46;;;;;;;6.25;4.40;;;;;;;17.63;41.50;101391.81;5029580;28;20044;-74
2021/09/20 04:41:13;;;;;;;5.85;4.40;;;;;;;17.61;41.57;101393.81;5048278;28;20055;-74
2021/09/20 04:43:39;;;;;;;7.40;4.70;;;;;;;17.59;41.43;101399.44;5046613;28;20073;-74
2021/09/20 04:46:06;;;;;;;5.55;4.05;;;;;;;17.59;41.67;101398.56;5047890;28;20127;-74
2021/09/20 04:48:32;;;;;;;5.68;4.03;;;;;;;17.59;41.53;101404.94;5046797;28;20049;-74
2021/09/20 04:50:59;;;;;;;6.60;4.18;;;;;;;17.58;41.86;101407.81;5030078;28;20048;-74
2021/09/20 04:53:26;;;;;;;7.00;4.03;;;;;;;17.56;41.80;101405.19;5046974;28;20119;-74
2021/09/20 04:55:52;;;;;;;6.10;4.35;;;;;;;17.55;41.94;101410.81;5029657;28;20132;-74
2021/09/20 04:58:19;;;;;;;7.43;4.30;;;;;;;17.55;41.78;101413.53;5046954;28;20132;-74
2021/09/20 05:00:45;;;;;;;6.53;4.13;;;;;;;17.54;41.85;101420.06;5047524;28;20037;-74
2021/09/20 05:03:12;;;;;;;6.22;4.30;;;;;;;17.54;41.55;101425.56;5046568;28;20072;-74
2021/09/20 05:05:39;;;;;;;6.05;4.07;;;;;;;17.53;41.85;101415.59;5047594;28;20116;-74
2021/09/20 05:08:06;;;;;;;6.20;4.30;;;;;;;17.53;42.06;101427.44;5046680;28;20051;-74
2021/09/20 05:10:33;;;;;;;6.43;4.63;;;;;;;17.52;41.66;101422.94;5029726;28;20466;-74
2021/09/20 05:12:59;;;;;;;6.75;4.45;;;;;;;17.50;42.01;101423.06;5046482;28;20487;-73
2021/09/20 05:15:26;;;;;;;6.97;4.70;;;;;;;17.50;41.89;101427.69;5047519;28;20476;-74
2021/09/20 05:17:52;;;;;;;7.18;4.93;;;;;;;17.49;42.00;101424.06;5046290;28;20045;-74
2021/09/20 05:20:21;;;;;;;6.82;4.95;;;;;;;17.50;42.10;101427.69;5047320;28;20453;-74
2021/09/20 05:22:49;;;;;;;5.97;4.40;;;;;;;17.50;42.02;101431.31;5029066;28;20148;-74
2021/09/20 05:25:16;;;;;;;5.95;4.30;;;;;;;17.49;42.05;101434.19;5047544;28;20084;-74
2021/09/20 05:27:43;;;;;;;6.63;4.18;;;;;;;17.50;42.40;101430.44;5044659;28;20526;-74
2021/09/20 05:30:11;;;;;;;5.95;4.20;;;;;;;17.49;42.05;101436.94;5046825;28;20049;-74
2021/09/20 05:32:38;;;;;;;6.25;4.18;;;;;;;17.49;42.10;101439.66;5046485;28;20235;-74
2021/09/20 05:35:07;;;;;;;6.22;4.18;;;;;;;17.50;42.54;101442.28;5047080;28;20560;-75
2021/09/20 05:37:34;;;;;;;7.90;4.40;;;;;;;17.50;42.48;101441.41;5028261;28;20135;-74
2021/09/20 05:40:00;;;;;;;7.05;4.43;;;;;;;17.50;42.20;101438.66;5046753;28;20160;-74
2021/09/20 05:42:27;;;;;;;6.53;4.70;;;;;;;17.49;42.48;101440.53;5028741;28;20596;-74
2021/09/20 05:56:15;;;;;;;6.00;4.00;;;;;;;17.45;42.81;101440.97;5030389;28;20047;-74
2021/09/20 05:58:50;;;;;;;6.93;4.57;;;;;;;17.53;43.18;101452.16;5054013;28;20430;-74
2021/09/20 06:01:23;;;;;;;7.57;4.90;;;;;;;17.56;43.56;101443.63;5028787;28;20037;-75
2021/09/20 06:03:50;;;;;;;7.68;4.68;;;;;;;17.54;42.76;101448.41;5027687;28;20128;-75
2021/09/20 06:06:16;;;;;;;7.68;4.75;;;;;;;17.57;43.01;101450.00;5046133;28;20112;-75
2021/09/20 06:08:43;;;;;;;7.82;5.20;;;;;;;17.59;43.21;101448.00;5045551;28;20102;-74
2021/09/20 06:11:11;;;;;;;6.63;4.57;;;;;;;17.61;43.19;101446.00;5028925;28;20453;-74
2021/09/20 06:13:38;;;;;;;6.53;4.57;;;;;;;17.64;43.21;101451.22;5045598;28;20049;-74
2021/09/20 06:16:05;;;;;;;7.18;4.50;;;;;;;17.65;43.12;101452.97;5046807;28;20124;-73
2021/09/20 06:18:32;;;;;;;6.82;4.65;;;;;;;17.67;43.08;101462.81;5045545;28;20049;-74
2021/09/20 06:20:59;;;;;;;6.93;4.68;;;;;;;17.69;43.35;101455.34;5046659;28;20123;-74
2021/09/20 06:23:25;;;;;;;6.82;4.78;;;;;;;17.72;43.41;101463.28;5045412;28;20128;-74
2021/09/20 06:25:52;;;;;;;6.88;4.72;;;;;;;17.74;43.50;101464.03;5028913;28;20139;-74
2021/09/20 06:28:18;;;;;;;6.95;4.43;;;;;;;17.77;43.65;101469.28;5051907;28;20084;-74
2021/09/20 06:30:45;;;;;;;8.15;5.22;;;;;;;17.80;43.41;101474.47;5036881;28;20152;-74
2021/09/20 06:33:12;;;;;;;6.15;4.57;;;;;;;17.83;43.32;101468.72;5045174;28;20124;-67
2021/09/20 06:35:39;;;;;;;7.63;4.85;;;;;;;17.88;43.65;101468.31;5028257;28;20481;-68
2021/09/20 06:38:06;;;;;;;8.20;4.95;;;;;;;17.89;43.70;101470.06;5045511;28;20155;-67
2021/09/20 06:40:32;;;;;;;7.25;4.80;;;;;;;17.93;43.73;101468.78;5045940;28;20056;-70
2021/09/20 06:42:59;;;;;;;7.70;4.82;;;;;;;17.95;43.62;101475.03;5027281;28;20132;-73
2021/09/20 06:45:25;;;;;;;7.60;5.13;;;;;;;17.99;43.57;101471.00;5046001;28;20506;-73
2021/09/20 06:47:52;;;;;;;9.13;4.95;;;;;;;18.03;43.58;101468.84;5026491;28;20132;-73
2021/09/20 06:50:19;;;;;;;6.75;5.18;;;;;;;18.05;44.01;101473.19;5045977;28;20052;-73
2021/09/20 06:52:45;;;;;;;7.10;5.13;;;;;;;18.08;43.56;101467.44;5035976;28;20049;-74
2021/09/20 06:55:14;;;;;;;9.23;5.43;;;;;;;18.12;43.44;101470.75;5025833;28;20133;-73
2021/09/20 06:57:41;;;;;;;7.38;4.78;;;;;;;18.14;43.70;101463.25;5031729;28;20140;-74
2021/09/20 07:00:08;;;;;;;7.38;4.80;;;;;;;18.18;43.69;101473.88;5027738;28;20099;-74
2021/09/20 07:02:35;;;;;;;7.43;4.93;;;;;;;18.19;43.47;101478.34;5026575;28;20055;-74
2021/09/20 07:05:03;;;;;;;8.20;5.00;;;;;;;18.22;43.55;101483.56;5045674;28;20091;-72
2021/09/20 07:07:30;;;;;;;7.88;5.43;;;;;;;18.24;43.73;101491.66;5026499;28;20600;-74
2021/09/20 07:09:56;;;;;;;6.85;4.88;;;;;;;18.26;43.56;101492.41;5045648;28;20090;-73
2021/09/20 07:12:23;;;;;;;7.78;4.50;;;;;;;18.28;43.94;101495.91;5044442;28;20449;-75
2021/09/20 07:14:49;;;;;;;7.63;5.07;;;;;;;18.32;43.79;101494.63;5045728;28;20063;-76
2021/09/20 07:17:16;;;;;;;8.02;5.22;;;;;;;18.35;43.84;101504.47;5027522;28;20076;-75
2021/09/20 07:19:53;;;;;;;8.82;4.60;;;;;;;18.35;43.42;101491.59;5044530;28;20045;-75
2021/09/20 07:22:20;;;;;;;6.90;4.72;;;;;;;18.39;43.51;101495.81;5044636;28;20092;-75
2021/09/20 07:24:46;;;;;;;8.05;5.35;;;;;;;18.40;43.62;101486.53;5027522;28;20140;-74
2021/09/20 07:27:13;;;;;;;7.03;4.70;;;;;;;18.44;43.50;101493.53;5045017;28;20073;-75
2021/09/20 07:29:39;;;;;;;6.78;4.50;;;;;;;18.46;43.41;101497.00;5046733;28;20075;-75
2021/09/20 07:32:07;;;;;;;7.82;4.70;;;;;;;18.50;43.82;101514.09;5047941;28;20102;-75
2021/09/20 07:34:34;;;;;;;7.95;5.28;;;;;;;18.51;43.59;101502.97;5027242;28;20057;-74
2021/09/20 07:37:00;;;;;;;5.78;4.20;;;;;;;18.54;43.51;101501.78;5027127;28;20538;-75
2021/09/20 07:39:27;;;;;;;5.90;4.35;;;;;;;18.57;43.63;101507.06;5044024;28;20076;-73
2021/09/20 07:41:54;;;;;;;7.93;5.13;;;;;;;18.59;43.50;101502.31;5046200;28;20325;-73
2021/09/20 07:44:20;;;;;;;8.52;4.88;;;;;;;18.63;43.44;101509.25;5044589;28;20473;-74
2021/09/20 07:46:47;;;;;;;7.20;5.03;;;;;;;18.64;43.18;101508.25;5045698;28;20078;-73
2021/09/20 07:49:13;;;;;;;7.10;5.13;;;;;;;18.68;43.39;101511.59;5044659;28;20135;-74
2021/09/20 07:51:40;;;;;;;6.28;4.35;;;;;;;18.71;43.37;101505.81;5045835;28;20575;-73
2021/09/20 07:54:06;;;;;;;6.72;4.75;;;;;;;18.72;43.35;101505.66;5044558;28;20080;-73
2021/09/20 07:56:33;;;;;;;6.90;4.38;;;;;;;18.75;43.19;101510.03;5045403;28;20136;-74
2021/09/20 07:59:01;;;;;;;6.78;4.68;;;;;;;18.79;43.24;101522.47;5026984;28;20060;-74
2021/09/20 08:01:28;;;;;;;6.93;4.95;;;;;;;18.82;43.38;101520.34;5045835;28;20414;-73
2021/09/20 08:03:56;;;;;;;6.78;4.40;;;;;;;18.85;43.07;101521.94;5044458;28;20048;-74
2021/09/20 08:06:24;;;;;;;7.00;4.75;;;;;;;18.89;43.10;101526.16;5045319;28;20052;-73
2021/09/20 08:08:51;;;;;;;6.40;4.32;;;;;;;18.91;43.55;101516.75;5044191;28;20057;-74
2021/09/20 08:11:18;;;;;;;6.78;5.30;;;;;;;18.93;43.41;101523.00;5045840;28;20045;-73
2021/09/20 08:13:45;;;;;;;6.70;4.60;;;;;;;18.98;43.00;101523.44;5044397;28;20414;-73
2021/09/20 08:16:11;;;;;;;8.02;4.60;;;;;;;19.00;43.00;101523.28;5027890;28;20063;-73
2021/09/20 08:18:38;;;;;;;6.30;4.53;;;;;;;19.03;42.88;101534.00;5028391;28;20045;-73
2021/09/20 08:21:06;;;;;;;8.57;4.60;;;;;;;19.05;42.98;101537.50;5048974;28;20135;-73
2021/09/20 08:23:34;;;;;;;6.82;4.70;;;;;;;19.09;42.92;101535.34;5030124;28;20438;-73
2021/09/20 08:26:01;;;;;;;6.97;4.47;;;;;;;19.12;43.26;101535.03;5049010;28;20049;-74
2021/09/20 08:28:28;;;;;;;5.75;3.97;;;;;;;19.15;42.90;101540.28;5030315;28;20100;-73
2021/09/20 08:30:54;;;;;;;5.80;4.20;;;;;;;19.18;42.62;101543.63;5049043;28;20036;-73
2021/09/20 08:33:21;;;;;;;5.88;3.97;;;;;;;19.20;42.85;101544.34;5047446;28;20060;-74
2021/09/20 08:35:47;;;;;;;5.30;3.47;;;;;;;19.24;42.69;101539.44;5049221;28;20076;-73
2021/09/20 08:38:14;;;;;;;5.80;3.85;;;;;;;19.28;42.77;101549.13;5046539;28;20069;-74
2021/09/20 08:40:41;;;;;;;5.70;4.15;;;;;;;19.30;42.21;101549.88;5049155;28;20525;-73
2021/09/20 08:43:08;;;;;;;5.55;4.30;;;;;;;19.35;42.24;101550.34;5047772;28;20067;-74
2021/09/20 08:45:34;;;;;;;5.03;3.58;;;;;;;19.36;42.21;101546.53;5048825;28;20084;-74
2021/09/20 08:48:01;;;;;;;5.72;3.75;;;;;;;19.38;42.04;101547.28;5047617;28;20060;-74
2021/09/20 08:50:35;;;;;;;5.40;3.60;;;;;;;19.43;41.80;101546.88;5048513;28;20095;-73
2021/09/20 08:53:04;;;;;;;4.80;3.50;;;;;;;19.45;41.66;101555.84;5047623;28;20123;-73
2021/09/20 08:55:32;;;;;;;5.57;3.50;;;;;;;19.48;41.82;101558.34;5048715;28;20392;-74
2021/09/20 08:57:59;;;;;;;4.72;3.40;;;;;;;19.51;41.52;101556.19;5047305;28;20057;-74
2021/09/20 09:00:26;;;;;;;5.07;3.78;;;;;;;19.55;41.74;101565.03;5047196;28;20111;-73
2021/09/20 09:02:52;;;;;;;4.72;3.40;;;;;;;19.60;41.60;101565.47;5047003;28;20125;-74
2021/09/20 09:05:22;;;;;;;6.95;4.00;;;;;;;19.65;41.67;101568.66;5047012;28;20053;-73
2021/09/20 09:07:55;;;;;;;5.03;3.55;;;;;;;19.70;41.65;101572.72;5045970;28;20292;-73
2021/09/20 09:10:23;;;;;;;4.55;3.50;;;;;;;19.71;41.39;101573.59;5048144;28;20088;-73
2021/09/20 09:12:51;;;;;;;5.22;3.88;;;;;;;19.76;41.35;101577.63;5045672;28;20136;-73
2021/09/20 09:15:19;;;;;;;5.38;3.22;;;;;;;19.80;41.28;101581.00;5048220;28;20092;-73
2021/09/20 09:17:48;;;;;;;5.20;3.65;;;;;;;19.83;41.40;101583.47;5046987;28;20071;-74
2021/09/20 09:20:14;;;;;;;6.03;3.88;;;;;;;19.86;41.41;101576.78;5047655;28;20141;-73
2021/09/20 09:23:02;;;;;;;4.57;3.40;;;;;;;19.95;40.97;101578.66;5046961;28;20041;-73
2021/09/20 09:25:39;;;;;;;5.53;3.22;;;;;;;19.98;40.56;101584.78;5047835;28;20465;-73
2021/09/20 09:28:24;;;;;;;5.43;3.28;;;;;;;20.00;40.31;101588.25;5046780;28;20124;-74
2021/09/20 09:30:58;;;;;;;4.65;3.33;;;;;;;20.05;40.99;101591.44;5046114;28;20076;-74
2021/09/20 09:33:36;;;;;;;5.00;3.20;;;;;;;20.12;39.94;101588.97;5046375;28;20049;-73
2021/09/20 09:36:08;;;;;;;4.03;2.88;;;;;;;20.12;40.71;101597.22;5046818;28;20079;-73
2021/09/20 09:38:35;;;;;;;4.47;3.13;;;;;;;20.20;40.59;101596.50;5047067;28;20471;-71
2021/09/20 09:41:04;;;;;;;4.10;2.90;;;;;;;20.26;40.23;101596.78;5047790;28;20191;-73
2021/09/20 09:43:36;;;;;;;4.80;3.22;;;;;;;20.33;39.96;101592.44;5046526;28;20123;-73
2021/09/20 09:46:18;;;;;;;4.38;3.35;;;;;;;20.37;39.82;101601.28;5047620;28;20530;-72
2021/09/20 09:48:45;;;;;;;4.85;3.33;;;;;;;20.38;40.12;101603.91;5044936;28;20305;-72
2021/09/20 09:51:12;;;;;;;4.88;3.35;;;;;;;20.44;39.72;101603.31;5046274;28;20047;-73
2021/09/20 09:53:44;;;;;;;5.45;3.05;;;;;;;20.51;39.30;101598.94;5045005;28;20080;-74
2021/09/20 09:56:25;;;;;;;4.70;3.40;;;;;;;20.50;38.94;101599.97;5047134;28;20084;-73
2021/09/20 09:59:04;;;;;;;5.90;3.70;;;;;;;20.56;38.64;101609.53;5046121;28;20287;-73
2021/09/20 10:01:39;;;;;;;4.97;3.53;;;;;;;20.60;38.93;101604.56;5047178;28;20041;-73
2021/09/20 10:04:23;;;;;;;5.03;3.50;;;;;;;20.61;39.32;101604.44;5044861;28;20044;-73
2021/09/20 10:06:55;;;;;;;5.28;3.33;;;;;;;20.65;39.87;101602.25;5047131;28;20053;-73
2021/09/20 10:09:28;;;;;;;4.93;3.30;;;;;;;20.69;39.21;101600.94;5045835;28;20059;-73
2021/09/20 10:11:57;;;;;;;4.63;3.47;;;;;;;20.75;39.98;101600.34;5045538;28;20094;-73
2021/09/20 10:14:25;;;;;;;4.60;3.20;;;;;;;20.83;39.37;101604.09;5044556;28;20542;-73
2021/09/20 10:16:54;;;;;;;5.50;3.22;;;;;;;20.89;39.17;101606.25;5046583;28;20095;-73
2021/09/20 10:19:22;;;;;;;4.80;3.40;;;;;;;20.92;39.24;101607.81;5045774;28;20557;-73
2021/09/20 10:21:50;;;;;;;4.57;3.45;;;;;;;20.96;38.51;101612.03;5046745;28;20176;-73
2021/09/20 10:24:17;;;;;;;5.90;3.80;;;;;;;20.98;39.00;101604.47;5044341;28;20137;-73
2021/09/20 10:26:45;;;;;;;4.32;3.05;;;;;;;21.01;38.80;101601.38;5045238;28;20151;-73
2021/09/20 10:29:14;;;;;;;4.32;3.22;;;;;;;21.07;38.55;101610.97;5046073;28;20075;-73
2021/09/20 10:31:42;;;;;;;4.30;3.05;;;;;;;21.10;38.42;101602.38;5046663;28;20466;-73
2021/09/20 10:34:18;;;;;;;4.95;3.33;;;;;;;21.15;37.70;101611.97;5045640;28;20077;-73
2021/09/20 10:37:01;;;;;;;4.75;3.22;;;;;;;21.18;38.16;101613.56;5045209;28;20476;-73
2021/09/20 10:39:45;;;;;;;4.63;3.47;;;;;;;21.20;37.52;101614.28;5045459;28;20136;-73
2021/09/20 10:42:34;;;;;;;4.55;3.15;;;;;;;21.24;37.73;101615.72;5045800;28;20041;-73
2021/09/20 10:45:08;;;;;;;4.20;2.92;;;;;;;21.30;37.37;101609.59;5045677;28;20048;-73
2021/09/20 10:47:45;;;;;;;;;;;;;;;21.05;38.21;101611.13;5045969;28;20481;-73
2021/09/20 10:50:12;;;;;;;4.25;3.10;;;;;;;21.31;38.05;101615.97;5046221;28;20354;-73
2021/09/20 10:53:20;;;;;;;4.13;3.00;;;;;;;21.36;36.71;101611.72;5045394;28;20557;-73
2021/09/20 10:56:14;;;;;;;4.82;3.10;;;;;;;21.35;37.33;101611.88;5044851;28;20073;-73
2021/09/20 10:58:51;;;;;;;4.93;3.00;;;;;;;21.42;37.70;101608.34;5043628;28;20055;-73
2021/09/20 11:01:19;;;;;;;5.22;3.08;;;;;;;21.44;37.58;101610.94;5044752;28;20478;-73
2021/09/20 11:03:50;;;;;;;5.53;3.45;;;;;;;21.49;36.86;101614.13;5045240;28;20055;-73
2021/09/20 11:06:33;;;;;;;5.47;3.63;;;;;;;21.54;36.73;101609.88;5046585;28;20053;-73
2021/09/20 11:09:01;;;;;;;4.18;2.80;;;;;;;21.51;37.41;101603.78;5044886;28;20132;-73
2021/09/20 11:11:43;;;;;;;4.97;3.47;;;;;;;21.59;35.96;101609.38;5045849;28;20095;-73
2021/09/20 11:14:19;;;;;;;4.32;3.08;;;;;;;21.62;36.19;101617.38;5045143;28;20111;-73
2021/09/20 11:17:15;;;;;;;4.80;3.50;;;;;;;21.64;36.65;101613.44;5046628;28;20455;-73
2021/09/20 11:19:44;;;;;;;6.82;3.60;;;;;;;21.65;36.99;101619.84;5045103;28;20123;-73
2021/09/20 11:22:16;;;;;;;5.57;3.40;;;;;;;21.71;35.94;101619.22;5046323;28;20499;-73
2021/09/20 11:24:55;;;;;;;4.90;3.58;;;;;;;21.75;35.34;101619.75;5044961;28;20048;-73
2021/09/20 11:27:22;;;;;;;5.90;4.00;;;;;;;21.74;37.12;101615.28;5044844;28;20128;-73
2021/09/20 11:29:50;;;;;;;4.85;3.60;;;;;;;21.79;36.71;101616.53;5045952;28;20148;-73
2021/09/20 11:32:17;;;;;;;5.07;3.58;;;;;;;21.82;36.94;101612.59;5045815;28;20075;-73
2021/09/20 11:34:49;;;;;;;5.53;3.72;;;;;;;21.87;37.18;101610.22;5044711;28;20487;-73
2021/09/20 11:37:27;;;;;;;4.45;3.47;;;;;;;21.93;36.24;101613.22;5044805;28;20465;-73
2021/09/20 11:40:09;;;;;;;5.32;3.45;;;;;;;21.97;36.25;101609.16;5044782;28;20562;-73
2021/09/20 11:42:35;;;;;;;5.10;3.58;;;;;;;21.97;36.52;101617.47;5044557;28;20044;-73